Time;durP1;ratioP1;P1;durP2;ratioP2;P2;SDS_P1;SDS_P2;PMS_P1;PMS_P2;Temp;Humidity;BMP_temperature;BMP_pressure;BME280_temperature;BME280_humidity;BME280_pressure;Samples;Min_cycle;Max_cycle;Signal;HPM_P1;HPM_P2
2021/07/01 00:01:03;;;;;;;11.20;5.93;;;;;;;24.97;69.24;101121.75;1754463;82;21161;-69
2021/07/01 00:03:37;;;;;;;8.38;5.92;;;;;;;24.97;69.55;101126.87;1749515;81;21840;-69
2021/07/01 00:06:13;;;;;;;17.07;7.22;;;;;;;24.96;69.67;101118.09;1708442;79;21428;-70
2021/07/01 00:08:46;;;;;;;7.35;6.22;;;;;;;24.95;69.92;101113.60;1736749;81;21360;-72
2021/07/01 00:11:18;;;;;;;11.53;6.08;;;;;;;24.89;70.16;101134.87;1742736;81;21301;-72
2021/07/01 00:13:51;;;;;;;9.00;6.20;;;;;;;24.86;70.44;101139.81;1740648;81;21167;-73
2021/07/01 00:16:25;;;;;;;11.33;6.80;;;;;;;24.82;70.79;101138.83;1740580;81;21762;-72
2021/07/01 00:18:58;;;;;;;11.68;6.28;;;;;;;24.82;71.16;101142.28;1733761;81;21829;-74
2021/07/01 00:21:32;;;;;;;9.45;6.78;;;;;;;24.77;71.37;101145.31;1729624;81;21339;-69
2021/07/01 00:24:07;;;;;;;10.13;6.87;;;;;;;24.75;71.81;101149.09;1740567;81;21209;-69
2021/07/01 00:26:41;;;;;;;8.23;5.85;;;;;;;24.71;71.99;101146.11;1734529;81;21195;-69
2021/07/01 00:29:14;;;;;;;8.75;6.70;;;;;;;24.66;72.06;101124.15;1732105;82;21170;-68
2021/07/01 00:31:46;;;;;;;;;;;;;;;24.56;72.35;101106.88;1744723;81;21305;-69
2021/07/01 00:34:19;;;;;;;9.65;6.62;;;;;;;24.52;72.39;101107.92;1735944;81;20272;-69
2021/07/01 00:36:52;;;;;;;10.30;6.87;;;;;;;24.49;72.54;101111.44;1735604;81;21387;-69
2021/07/01 00:39:24;;;;;;;13.20;6.70;;;;;;;24.44;72.67;101105.98;1738873;81;21690;-69
2021/07/01 00:41:57;;;;;;;11.68;7.08;;;;;;;24.42;72.84;101113.98;1739024;82;21229;-71
2021/07/01 00:44:32;;;;;;;13.90;7.07;;;;;;;24.42;72.96;101111.14;1739124;82;21320;-69
2021/07/01 00:47:05;;;;;;;15.20;7.05;;;;;;;24.44;73.01;101103.14;1712839;82;21407;-70
2021/07/01 00:49:39;;;;;;;8.63;6.37;;;;;;;24.45;72.98;101099.11;1654167;86;21181;-68
2021/07/01 00:52:13;;;;;;;11.50;6.13;;;;;;;24.42;73.00;101120.51;1667809;85;21233;-70
2021/07/01 00:54:46;;;;;;;13.03;7.20;;;;;;;24.42;72.99;101128.19;1737002;81;21190;-69
2021/07/01 00:57:19;;;;;;;12.80;6.53;;;;;;;24.37;73.10;101126.38;1726039;82;21317;-69
2021/07/01 00:59:53;;;;;;;10.00;6.65;;;;;;;24.33;73.24;101129.64;1670721;86;21194;-70
2021/07/01 01:02:27;;;;;;;10.20;6.37;;;;;;;24.34;73.30;101136.17;1737516;82;21269;-69
2021/07/01 01:05:01;;;;;;;15.40;5.90;;;;;;;24.33;73.18;101153.78;1738987;81;21186;-69
2021/07/01 01:07:34;;;;;;;18.17;6.12;;;;;;;24.32;73.13;101139.95;1744732;80;21315;-70
2021/07/01 01:10:11;;;;;;;13.18;6.12;;;;;;;24.35;72.72;101138.68;1693797;83;21186;-73
2021/07/01 01:12:44;;;;;;;8.73;6.42;;;;;;;24.37;72.35;101151.09;1692474;83;21225;-70
2021/07/01 01:15:16;;;;;;;8.35;6.25;;;;;;;24.36;71.95;101167.89;1692497;85;21856;-69
2021/07/01 01:17:49;;;;;;;19.50;5.72;;;;;;;24.36;71.80;101170.73;1694376;83;21235;-69
2021/07/01 01:20:23;;;;;;;9.18;5.72;;;;;;;24.33;71.68;101162.30;1693937;85;21563;-69
2021/07/01 01:22:57;;;;;;;14.53;5.75;;;;;;;24.32;71.41;101164.90;1663506;85;21212;-68
2021/07/01 01:25:30;;;;;;;14.28;6.22;;;;;;;24.32;71.03;101174.84;1670578;85;21145;-71
2021/07/01 01:28:02;;;;;;;12.13;6.12;;;;;;;24.37;70.49;101181.75;1717531;83;21195;-69
2021/07/01 01:30:40;;;;;;;13.83;5.63;;;;;;;24.41;70.33;101176.23;1702145;84;21166;-71
2021/07/01 01:33:12;;;;;;;5.50;4.87;;;;;;;24.44;69.98;101173.53;1721733;82;21162;-70
2021/07/01 01:35:45;;;;;;;6.28;5.03;;;;;;;24.47;69.31;101171.45;1695698;83;21189;-71
2021/07/01 01:38:18;;;;;;;6.95;5.17;;;;;;;24.46;68.98;101165.53;1704226;83;21293;-70
2021/07/01 01:40:51;;;;;;;11.25;5.42;;;;;;;24.50;68.01;101156.55;1747540;80;21331;-70
2021/07/01 01:43:25;;;;;;;8.28;5.58;;;;;;;24.50;68.01;101156.55;1746026;80;21363;-69
2021/07/01 01:45:58;;;;;;;;;;;;;;;24.52;67.54;101160.47;1695242;84;21268;-69
2021/07/01 01:48:32;;;;;;;7.75;5.47;;;;;;;24.50;67.29;101164.25;1751712;80;20617;-71
2021/07/01 01:51:05;;;;;;;;;;;;;;;24.47;67.01;101157.25;1750209;80;21190;-70
2021/07/01 01:53:38;;;;;;;8.85;5.60;;;;;;;24.45;66.94;101158.76;1749951;80;20658;-69
2021/07/01 01:56:10;;;;;;;14.38;5.65;;;;;;;24.41;66.77;101162.02;1748688;80;21379;-69
2021/07/01 01:58:46;;;;;;;11.88;4.97;;;;;;;24.39;66.76;101155.86;1694923;84;21192;-69
2021/07/01 02:01:33;;;;;;;16.62;6.55;;;;;;;24.40;66.86;101146.16;1669746;82;21351;-70
2021/07/01 02:04:08;;;;;;;9.95;5.80;;;;;;;24.43;66.51;101144.89;1712987;82;21296;-69
2021/07/01 02:06:42;;;;;;;13.68;5.78;;;;;;;24.46;66.31;101141.95;1737588;82;21301;-69
2021/07/01 02:09:17;;;;;;;10.35;5.60;;;;;;;24.47;66.34;101143.62;1719814;82;21225;-69
2021/07/01 02:11:52;;;;;;;5.67;5.08;;;;;;;24.50;66.20;101133.01;1733625;81;21158;-69
2021/07/01 02:14:26;;;;;;;9.13;5.78;;;;;;;24.51;66.11;101114.18;1743469;81;21241;-69
2021/07/01 02:17:03;;;;;;;7.87;4.90;;;;;;;24.52;66.00;101113.61;1731967;81;21174;-70
2021/07/01 02:19:36;;;;;;;10.60;5.05;;;;;;;24.52;65.96;101113.03;1752394;81;21194;-71
2021/07/01 02:22:09;;;;;;;7.15;5.40;;;;;;;24.51;65.75;101117.63;1735535;81;21170;-73
2021/07/01 02:24:43;;;;;;;12.50;5.22;;;;;;;24.45;65.79;101116.97;1731945;81;21229;-72
2021/07/01 02:27:16;;;;;;;10.18;5.08;;;;;;;24.42;66.00;101109.15;1740125;81;21174;-74
2021/07/01 02:29:49;;;;;;;8.58;5.47;;;;;;;24.42;66.08;101119.67;1725268;81;21931;-73
2021/07/01 02:32:24;;;;;;;7.50;5.78;;;;;;;24.38;66.23;101123.78;1734354;81;21394;-72
2021/07/01 02:34:58;;;;;;;9.35;5.60;;;;;;;24.41;66.42;101126.52;1675052;84;21743;-73
2021/07/01 02:37:30;;;;;;;6.95;5.17;;;;;;;24.42;66.54;101127.61;1721749;81;21344;-72
2021/07/01 02:40:12;;;;;;;8.33;4.83;;;;;;;24.42;66.56;101131.02;1672783;84;21254;-72
2021/07/01 02:42:48;;;;;;;7.12;5.37;;;;;;;24.41;66.69;101139.30;1689570;83;21214;-72
2021/07/01 02:45:21;;;;;;;12.10;5.75;;;;;;;24.43;66.78;101132.69;1725500;81;21317;-71
2021/07/01 02:47:55;;;;;;;10.55;5.42;;;;;;;24.44;67.07;101140.88;1672066;86;21306;-73
2021/07/01 02:50:31;;;;;;;8.88;5.97;;;;;;;24.45;67.00;101148.22;1680765;84;21392;-72
2021/07/01 02:53:04;;;;;;;12.78;6.15;;;;;;;24.40;67.04;101154.69;1730532;82;21302;-73
2021/07/01 02:55:37;;;;;;;11.25;5.53;;;;;;;24.39;67.24;101156.68;1730411;83;21855;-73
2021/07/01 02:58:10;;;;;;;8.50;4.70;;;;;;;24.42;67.26;101158.00;1729997;82;21450;-72
2021/07/01 03:00:45;;;;;;;7.37;4.78;;;;;;;24.44;67.22;101162.78;1660455;84;21206;-74
2021/07/01 03:03:18;;;;;;;13.85;5.87;;;;;;;24.41;67.30;101170.55;1733787;81;21226;-71
2021/07/01 03:06:01;;;;;;;31.05;7.33;;;;;;;24.44;67.41;101165.63;1738642;82;21341;-71
2021/07/01 03:08:34;;;;;;;27.48;5.78;;;;;;;24.46;67.32;101171.78;1737845;81;21743;-72
2021/07/01 03:11:08;;;;;;;17.57;5.85;;;;;;;24.44;67.27;101167.04;1735540;82;21174;-70
2021/07/01 03:13:41;;;;;;;10.03;6.03;;;;;;;24.41;67.52;101160.61;1686672;83;21178;-70
2021/07/01 03:16:19;;;;;;;32.73;5.75;;;;;;;24.40;67.59;101154.11;1685607;83;21878;-70
2021/07/01 03:18:54;;;;;;;193.75;14.20;;;;;;;24.40;67.71;101158.95;1712570;80;21717;-70
2021/07/01 03:21:45;;;;;;;35.50;6.22;;;;;;;24.43;67.62;101152.56;1753884;82;22002;-73
2021/07/01 03:24:19;;;;;;;28.07;6.85;;;;;;;24.46;67.47;101147.64;1748892;82;21322;-72
2021/07/01 03:26:53;;;;;;;26.60;6.00;;;;;;;24.44;67.42;101125.86;1728802;82;21334;-72
2021/07/01 03:29:26;;;;;;;37.58;6.58;;;;;;;24.47;67.55;101107.54;1750947;82;21892;-71
2021/07/01 03:31:59;;;;;;;23.52;5.67;;;;;;;24.54;67.36;101092.20;1753078;82;21329;-72
2021/07/01 03:34:35;;;;;;;19.52;5.50;;;;;;;24.61;67.19;101078.89;1742649;82;21227;-66
2021/07/01 03:37:08;;;;;;;15.10;6.42;;;;;;;24.65;66.95;101065.09;1737543;82;21196;-68
2021/07/01 03:39:59;;;;;;;19.23;5.58;;;;;;;24.67;66.45;101053.36;1753551;82;21187;-68
2021/07/01 03:42:34;;;;;;;14.95;5.95;;;;;;;24.64;66.57;101052.65;1751009;82;21234;-66
2021/07/01 03:45:08;;;;;;;20.60;6.65;;;;;;;24.62;66.95;101033.70;1745576;81;21163;-66
2021/07/01 03:47:43;;;;;;;13.80;5.62;;;;;;;24.66;67.09;101033.23;1672118;80;21212;31
2021/07/01 03:50:15;;;;;;;14.75;5.78;;;;;;;24.69;66.76;101029.11;1721111;83;21195;-71
2021/07/01 03:52:53;;;;;;;16.48;6.50;;;;;;;24.71;66.74;101011.73;1715823;82;21325;-71
2021/07/01 03:55:26;;;;;;;;;;;;;;;24.72;66.69;101002.02;1745111;82;21197;-70
2021/07/01 03:58:00;;;;;;;18.35;6.30;;;;;;;24.75;66.88;101000.73;1709132;82;20305;-72
2021/07/01 04:00:34;;;;;;;12.45;6.72;;;;;;;24.81;66.94;101002.79;1750198;82;22057;-71
2021/07/01 04:03:10;;;;;;;14.10;6.55;;;;;;;24.82;66.92;100995.92;1740697;82;21286;-70
2021/07/01 04:05:47;;;;;;;14.28;6.90;;;;;;;24.81;66.87;100986.55;1748448;82;21324;-70
2021/07/01 04:08:21;;;;;;;17.80;7.30;;;;;;;24.83;66.47;100980.53;1733641;82;21823;-71
2021/07/01 04:10:57;;;;;;;19.25;6.60;;;;;;;24.85;66.43;100975.31;1749043;82;21297;-70
2021/07/01 04:13:32;;;;;;;17.98;5.85;;;;;;;24.91;65.70;100972.50;1745069;82;21273;-80
2021/07/01 04:16:22;;;;;;;10.35;6.90;;;;;;;25.02;65.68;100966.63;1745050;81;21242;-76
2021/07/01 04:18:57;;;;;;;12.35;7.12;;;;;;;25.23;65.92;100965.38;1740943;82;21167;-75
2021/07/01 04:21:46;;;;;;;15.32;6.53;;;;;;;25.51;65.62;100972.70;1656558;86;21227;-71
2021/07/01 04:24:34;;;;;;;15.90;7.12;;;;;;;25.81;64.86;100974.16;1702833;81;21229;-71
2021/07/01 04:27:09;;;;;;;16.27;5.85;;;;;;;26.12;63.54;100958.75;1737998;82;21250;-71
2021/07/01 04:29:43;;;;;;;16.87;6.55;;;;;;;26.29;62.05;100947.94;1750063;82;21331;-74
2021/07/01 04:32:17;;;;;;;17.30;6.03;;;;;;;26.33;61.14;100943.16;1748308;82;21155;-70
2021/07/01 04:34:52;;;;;;;25.27;7.25;;;;;;;26.35;60.64;100935.11;1750524;82;21359;-72
2021/07/01 04:37:28;;;;;;;13.78;6.53;;;;;;;26.38;59.68;100931.52;1749306;82;21222;-73
2021/07/01 04:40:08;;;;;;;18.73;6.05;;;;;;;26.42;60.84;100935.90;1721865;82;21190;-71
2021/07/01 04:42:43;;;;;;;17.52;6.17;;;;;;;26.54;60.20;100932.47;1713221;82;21306;-73
2021/07/01 04:45:16;;;;;;;12.93;5.45;;;;;;;26.61;59.28;100937.53;1715063;83;21698;-76
2021/07/01 04:47:50;;;;;;;17.52;5.50;;;;;;;26.59;58.88;100944.20;1715441;82;21389;-72
2021/07/01 04:50:24;;;;;;;15.40;5.10;;;;;;;26.52;58.71;100929.09;1693406;82;21373;-75
2021/07/01 04:53:27;;;;;;;12.37;5.87;;;;;;;26.39;58.60;100910.99;1778926;79;21663;-74
2021/07/01 04:56:22;;;;;;;10.20;5.80;;;;;;;26.15;59.18;100926.11;1745369;80;21372;-73
2021/07/01 04:59:00;;;;;;;11.20;5.60;;;;;;;25.90;60.08;100927.33;1710878;82;21406;-73
2021/07/01 05:01:35;;;;;;;10.35;5.17;;;;;;;25.75;60.96;100920.08;1720488;82;21338;-74
2021/07/01 05:04:36;;;;;;;19.60;6.55;;;;;;;25.63;62.41;100927.19;1754416;81;21125;-72
2021/07/01 05:07:09;;;;;;;13.80;6.95;;;;;;;25.63;63.27;100952.80;1757990;80;21328;-75
2021/07/01 05:09:44;;;;;;;11.85;6.58;;;;;;;25.66;62.94;100947.84;1750261;80;21744;-72
2021/07/01 05:12:31;;;;;;;18.05;7.60;;;;;;;25.66;63.08;100932.19;1776103;80;21181;-70
2021/07/01 05:15:06;;;;;;;16.17;6.53;;;;;;;25.62;62.76;100930.64;1755057;80;21219;-68
2021/07/01 05:17:39;;;;;;;15.30;6.97;;;;;;;25.54;62.73;100947.22;1735060;82;21423;-69
2021/07/01 05:20:13;;;;;;;13.50;6.60;;;;;;;25.51;62.48;100965.59;1746820;80;21198;-71
2021/07/01 05:22:47;;;;;;;12.82;7.47;;;;;;;25.46;62.41;100982.88;1732944;82;21214;-72
2021/07/01 05:25:25;;;;;;;20.15;7.60;;;;;;;25.47;62.86;100992.49;1710258;82;21735;-72
2021/07/01 05:28:15;;;;;;;15.50;6.35;;;;;;;25.52;62.89;101002.81;1744116;82;21229;-70
2021/07/01 05:31:05;;;;;;;13.30;5.75;;;;;;;25.55;63.15;101016.34;1742146;82;21898;-68
2021/07/01 05:33:57;;;;;;;11.90;5.85;;;;;;;25.56;62.98;101028.80;1743993;82;21364;-67
2021/07/01 05:36:33;;;;;;;13.65;6.17;;;;;;;25.57;62.35;101035.30;1744583;82;21329;-68
2021/07/01 05:39:08;;;;;;;18.05;6.95;;;;;;;25.56;62.09;101051.56;1742133;82;21341;-65
2021/07/01 05:41:43;;;;;;;16.77;6.58;;;;;;;25.56;62.04;101063.53;1743370;81;21219;-70
2021/07/01 05:44:16;;;;;;;21.25;6.10;;;;;;;25.56;62.50;101072.91;1740004;80;21207;-69
2021/07/01 05:46:56;;;;;;;13.48;6.62;;;;;;;25.54;62.53;101073.83;1741384;80;21266;-68
2021/07/01 05:49:28;;;;;;;16.65;6.12;;;;;;;25.54;62.80;101071.59;1744830;82;21693;-72
2021/07/01 05:52:04;;;;;;;18.85;6.05;;;;;;;25.51;63.06;101079.39;1731463;82;21778;-74
2021/07/01 05:54:37;;;;;;;13.10;5.62;;;;;;;25.48;63.46;101077.27;1729548;81;21385;-69
2021/07/01 05:57:11;;;;;;;24.75;6.10;;;;;;;25.48;63.81;101088.03;1764055;81;21336;-72
2021/07/01 05:59:44;;;;;;;16.07;6.95;;;;;;;25.51;64.27;101089.34;1763914;81;21893;-69
2021/07/01 06:02:16;;;;;;;20.17;7.73;;;;;;;25.53;65.09;101086.39;1736494;82;21242;-70
2021/07/01 06:04:49;;;;;;;11.57;9.00;;;;;;;25.52;65.85;101075.36;1736624;82;21253;-70
2021/07/01 06:07:45;;;;;;;20.02;7.92;;;;;;;25.45;66.53;101060.30;1731375;82;21420;-71
2021/07/01 06:10:19;;;;;;;12.98;8.48;;;;;;;25.41;67.30;101054.25;1734942;82;21340;-69
2021/07/01 06:12:52;;;;;;;10.60;7.37;;;;;;;25.39;67.76;101040.37;1736248;82;21755;-71
2021/07/01 06:15:26;;;;;;;14.75;7.12;;;;;;;25.37;68.00;101027.06;1723962;83;21325;-71
2021/07/01 06:17:59;;;;;;;10.63;7.35;;;;;;;25.36;67.81;101026.02;1730055;82;21403;-69
2021/07/01 06:20:32;;;;;;;12.45;6.78;;;;;;;25.34;67.78;101022.09;1736127;82;21203;-72
2021/07/01 06:23:08;;;;;;;11.18;6.75;;;;;;;25.33;67.75;101028.97;1729788;82;21162;-69
2021/07/01 06:25:40;;;;;;;15.95;6.45;;;;;;;25.34;67.09;101022.67;1734461;82;21392;-67
2021/07/01 06:28:15;;;;;;;8.98;6.30;;;;;;;25.35;66.14;101024.36;1738712;81;21253;-69
2021/07/01 06:30:49;;;;;;;15.83;7.05;;;;;;;25.37;65.96;101037.02;1736507;82;21201;-69
2021/07/01 06:33:22;;;;;;;14.80;6.90;;;;;;;25.39;66.18;101029.57;1743169;82;21358;-72
2021/07/01 06:35:55;;;;;;;16.65;6.37;;;;;;;25.37;66.26;101007.16;1742344;82;21619;-70
2021/07/01 06:38:32;;;;;;;15.40;6.50;;;;;;;25.37;66.01;100990.70;1717879;81;21766;-72
2021/07/01 06:41:18;;;;;;;15.93;6.17;;;;;;;25.40;65.40;100983.71;1719987;81;21833;-70
2021/07/01 06:44:09;;;;;;;14.33;6.78;;;;;;;25.45;64.00;100986.92;1764419;80;21335;-73
2021/07/01 06:46:59;;;;;;;12.28;5.67;;;;;;;25.50;63.76;101026.52;1767539;81;21165;-72
2021/07/01 06:49:49;;;;;;;10.93;6.37;;;;;;;25.53;63.87;101035.18;1767474;81;21358;-71
2021/07/01 06:52:31;;;;;;;12.00;6.22;;;;;;;25.55;64.05;101056.99;1701248;80;21475;-73
2021/07/01 06:55:22;;;;;;;20.48;6.33;;;;;;;25.56;64.37;101069.22;1706950;84;21340;-72
2021/07/01 06:57:59;;;;;;;13.98;6.37;;;;;;;25.56;64.67;101093.40;1675873;85;21309;-72
2021/07/01 07:00:32;;;;;;;13.43;7.03;;;;;;;25.58;65.48;101118.91;1676254;85;21318;-73
2021/07/01 07:03:05;;;;;;;9.93;7.55;;;;;;;25.60;66.12;101142.13;1694479;84;21360;-72
2021/07/01 07:05:38;;;;;;;13.95;7.58;;;;;;;25.66;66.67;101179.77;1706931;84;21339;-73
2021/07/01 07:08:13;;;;;;;15.32;8.03;;;;;;;25.68;67.17;101228.04;1698945;84;21196;-70
2021/07/01 07:10:46;;;;;;;11.73;7.25;;;;;;;25.71;67.79;101238.71;1685333;84;21374;-73
2021/07/01 07:13:19;;;;;;;15.68;7.50;;;;;;;25.79;67.73;101227.83;1678453;84;21863;-74
2021/07/01 07:15:58;;;;;;;13.40;7.47;;;;;;;25.91;67.64;101198.02;1726356;82;21560;-73
2021/07/01 07:18:34;;;;;;;28.95;7.60;;;;;;;26.03;66.92;101198.67;1696819;82;21285;-74
2021/07/01 07:23:55;;;;;;;14.25;7.22;;;;;;;26.46;67.15;101207.55;1720018;82;21328;-74
2021/07/01 07:26:29;;;;;;;14.13;6.87;;;;;;;26.72;66.95;101192.38;1734024;82;21260;-74
2021/07/01 07:29:17;;;;;;;19.23;7.78;;;;;;;26.97;66.24;101186.91;1702530;82;21427;-75
2021/07/01 07:32:18;;;;;;;22.65;8.15;;;;;;;27.33;65.81;101196.86;1706496;83;21406;-73
2021/07/01 07:34:51;;;;;;;13.62;7.85;;;;;;;27.66;64.12;101187.72;1708357;83;21878;-72
2021/07/01 07:37:24;;;;;;;13.15;7.83;;;;;;;27.93;63.50;101174.05;1701748;83;21177;-72
2021/07/01 07:39:57;;;;;;;15.80;7.58;;;;;;;28.20;62.33;101176.02;1711245;83;21501;-72
2021/07/01 07:42:29;;;;;;;13.83;7.80;;;;;;;28.40;61.52;101179.27;1683714;83;21178;-73
2021/07/01 07:45:06;;;;;;;13.93;7.40;;;;;;;28.55;60.35;101153.31;1682897;83;21232;-73
2021/07/01 07:47:46;;;;;;;15.95;8.80;;;;;;;28.61;59.54;101153.26;1694472;84;21502;-70
2021/07/01 07:50:20;;;;;;;11.55;6.47;;;;;;;28.76;60.71;101168.97;1692795;84;21195;-72
2021/07/01 07:52:53;;;;;;;7.85;5.85;;;;;;;29.00;59.38;101173.06;1693227;84;21218;-72
2021/07/01 07:55:30;;;;;;;15.60;6.47;;;;;;;29.16;58.76;101160.95;1647811;86;21812;-73
2021/07/01 07:58:11;;;;;;;14.33;6.40;;;;;;;29.27;58.72;101162.03;1665772;85;21241;-72
2021/07/01 08:00:41;;;;;;;16.45;6.97;;;;;;;29.38;58.92;101150.81;1665450;85;21209;-74
2021/07/01 08:03:14;;;;;;;11.40;6.55;;;;;;;29.47;58.50;101155.73;1716674;82;21209;-77
2021/07/01 08:05:46;;;;;;;24.55;7.40;;;;;;;29.48;57.31;101176.00;1727774;82;21708;-73
2021/07/01 08:08:20;;;;;;;12.73;7.28;;;;;;;29.46;57.22;101169.20;1719191;82;21216;-74
2021/07/01 08:10:52;;;;;;;16.57;7.75;;;;;;;29.48;57.71;101155.95;1733087;82;21237;-76
2021/07/01 08:13:25;;;;;;;17.20;8.25;;;;;;;29.49;57.30;101148.42;1732528;82;21258;-76
2021/07/01 08:15:58;;;;;;;13.43;8.18;;;;;;;29.46;58.25;101161.23;1729207;82;21425;-73
2021/07/01 08:18:41;;;;;;;11.10;7.78;;;;;;;29.43;57.71;101168.55;1728786;82;21337;-74
2021/07/01 08:21:14;;;;;;;10.08;7.37;;;;;;;29.35;58.15;101164.47;1729620;82;21835;-74
2021/07/01 08:23:47;;;;;;;14.98;8.10;;;;;;;29.27;58.29;101164.05;1723711;82;21182;-73
2021/07/01 08:26:20;;;;;;;13.35;8.18;;;;;;;29.17;57.52;101162.61;1729553;82;21331;-74
2021/07/01 08:28:55;;;;;;;9.43;7.28;;;;;;;29.08;58.07;101162.00;1728400;82;21399;-73
2021/07/01 08:31:28;;;;;;;13.55;8.00;;;;;;;29.01;58.00;101139.55;1726665;82;21710;-75
2021/07/01 08:34:04;;;;;;;16.42;7.95;;;;;;;28.97;57.59;101135.17;1731652;82;21210;-73
2021/07/01 08:36:37;;;;;;;18.15;7.40;;;;;;;28.89;56.65;101142.49;1699802;82;21181;-73
2021/07/01 08:39:09;;;;;;;16.27;6.60;;;;;;;28.77;56.83;101145.47;1732447;82;21344;-72
2021/07/01 08:41:44;;;;;;;11.93;7.65;;;;;;;28.72;56.81;101143.73;1730668;82;21182;-68
2021/07/01 08:44:22;;;;;;;11.65;6.78;;;;;;;28.67;57.31;101141.77;1727410;82;21752;-76
2021/07/01 08:46:55;;;;;;;8.50;6.95;;;;;;;28.71;57.73;101134.08;1724502;82;21246;-69
2021/07/01 08:49:37;;;;;;;12.40;7.05;;;;;;;28.78;57.47;101122.81;1727845;82;21355;-73
2021/07/01 08:52:14;;;;;;;11.45;7.12;;;;;;;28.85;57.21;101126.67;1689914;84;21209;-74
2021/07/01 08:55:08;;;;;;;14.78;6.92;;;;;;;28.87;57.01;101124.87;1677508;83;21331;-74
2021/07/01 08:57:41;;;;;;;23.65;7.28;;;;;;;28.87;56.54;101132.84;1676980;84;21235;-75
2021/07/01 09:00:17;;;;;;;10.93;7.12;;;;;;;28.81;56.19;101135.77;1706136;82;21202;-75
2021/07/01 09:02:58;;;;;;;9.03;6.05;;;;;;;28.75;56.61;101125.84;1728659;82;21358;-75
2021/07/01 09:05:38;;;;;;;13.25;7.10;;;;;;;28.71;56.83;101123.48;1671151;84;21337;-73
2021/07/01 09:08:14;;;;;;;10.35;7.58;;;;;;;28.72;57.72;101107.98;1681331;84;21246;-69
2021/07/01 09:10:53;;;;;;;10.25;7.00;;;;;;;28.82;58.16;101084.53;1680410;84;21242;-71
2021/07/01 09:13:31;;;;;;;15.68;7.53;;;;;;;28.93;58.39;101064.13;1694105;84;21372;-78
2021/07/01 09:16:10;;;;;;;15.10;8.38;;;;;;;28.94;56.88;101061.52;1698821;84;21716;-68
2021/07/01 09:18:46;;;;;;;11.48;7.53;;;;;;;28.91;56.36;101060.81;1696961;84;21145;-70
2021/07/01 09:21:21;;;;;;;16.62;8.05;;;;;;;28.86;55.68;101049.66;1683316;84;21209;-74
2021/07/01 09:23:54;;;;;;;20.65;7.78;;;;;;;28.74;55.76;101042.65;1689034;84;21246;-76
2021/07/01 09:26:27;;;;;;;12.65;8.55;;;;;;;28.65;55.68;101038.34;1745109;82;21344;-74
2021/07/01 09:29:01;;;;;;;15.60;10.48;;;;;;;28.50;55.73;101030.03;1733334;81;21176;-68
2021/07/01 09:31:36;;;;;;;12.05;8.03;;;;;;;28.35;56.43;101041.47;1725028;82;21747;-74
2021/07/01 09:34:13;;;;;;;12.98;8.05;;;;;;;28.22;57.14;101036.48;1728968;82;21815;-72
2021/07/01 09:36:47;;;;;;;17.52;7.28;;;;;;;28.10;57.71;101028.00;1738428;81;21906;-74
2021/07/01 09:39:26;;;;;;;15.05;7.87;;;;;;;28.05;58.60;101019.71;1734591;81;21760;-68
2021/07/01 09:42:05;;;;;;;12.98;8.53;;;;;;;28.05;59.63;100997.44;1745420;81;21211;-67
2021/07/01 09:44:40;;;;;;;14.33;8.45;;;;;;;28.12;59.91;100995.59;1737877;81;21163;-72
2021/07/01 09:47:13;;;;;;;9.23;8.10;;;;;;;28.17;59.70;100995.32;1724836;81;21320;-75
2021/07/01 09:49:46;;;;;;;10.30;7.55;;;;;;;28.26;60.14;101006.55;1730425;82;21166;-72
2021/07/01 09:52:19;;;;;;;9.60;7.53;;;;;;;28.39;60.85;101000.39;1728231;82;21306;-69
2021/07/01 09:54:52;;;;;;;7.25;6.55;;;;;;;28.60;61.48;100993.72;1730117;82;21202;-71
2021/07/01 09:57:31;;;;;;;16.42;7.42;;;;;;;28.85;61.26;100987.94;1711126;82;21164;-68
2021/07/01 10:00:13;;;;;;;18.37;7.58;;;;;;;29.10;60.89;100987.89;1728998;82;21250;-66
2021/07/01 10:02:44;;;;;;;9.10;6.22;;;;;;;29.33;60.33;100990.20;1720890;83;21367;-73
2021/07/01 10:05:28;;;;;;;11.43;6.62;;;;;;;29.49;59.84;100985.20;1721185;83;21194;-76
2021/07/01 10:08:02;;;;;;;9.88;6.78;;;;;;;29.63;59.22;100981.79;1713681;82;21238;-69
2021/07/01 10:10:54;;;;;;;10.35;7.40;;;;;;;29.72;58.90;100986.67;1723541;82;21202;-75
2021/07/01 10:13:26;;;;;;;15.32;7.05;;;;;;;29.74;59.03;100967.90;1739335;82;21324;-73
2021/07/01 10:16:00;;;;;;;8.95;6.20;;;;;;;29.80;59.09;100972.09;1730077;81;21821;-73
2021/07/01 10:18:41;;;;;;;12.93;6.90;;;;;;;29.79;58.78;100958.15;1730545;82;21746;-65
2021/07/01 10:21:16;;;;;;;11.25;6.55;;;;;;;29.71;58.84;100953.52;1709537;82;21249;-69
2021/07/01 10:23:51;;;;;;;13.25;6.85;;;;;;;29.64;59.24;100944.80;1691982;84;21419;-77
2021/07/01 10:26:24;;;;;;;9.68;6.72;;;;;;;29.57;59.00;100945.49;1703612;84;21326;-68
2021/07/01 10:29:02;;;;;;;10.30;6.87;;;;;;;29.54;59.45;100944.00;1681561;84;21212;-75
2021/07/01 10:31:56;;;;;;;19.25;6.80;;;;;;;29.46;59.22;100934.41;1680413;84;21213;-73
2021/07/01 10:34:45;;;;;;;;;;;;;;;;;;;;;
2021/07/01 10:37:18;;;;;;;9.73;6.05;;;;;;;29.10;59.11;100924.94;1691243;84;21180;-77
2021/07/01 10:39:51;;;;;;;17.20;6.70;;;;;;;28.99;59.07;100905.30;1693702;84;21194;-72
2021/07/01 10:42:25;;;;;;;8.05;6.28;;;;;;;28.89;59.66;100911.63;1675533;84;21364;-71
2021/07/01 10:45:13;;;;;;;9.90;5.85;;;;;;;28.84;58.97;100913.35;1703694;84;21186;-76
2021/07/01 10:47:48;;;;;;;7.08;5.75;;;;;;;28.79;59.43;100907.13;1697690;84;21360;-75
2021/07/01 10:50:27;;;;;;;9.05;5.58;;;;;;;28.76;59.36;100908.70;1633406;85;22637;-73
2021/07/01 10:53:03;;;;;;;14.00;5.67;;;;;;;28.76;58.72;100911.56;1696848;83;21264;-74
2021/07/01 10:55:43;;;;;;;14.65;6.05;;;;;;;28.68;58.73;100901.16;1739776;82;21854;-74
2021/07/01 10:58:18;;;;;;;8.48;6.30;;;;;;;28.61;58.91;100897.34;1733254;82;21199;-66
2021/07/01 11:00:53;;;;;;;17.62;5.47;;;;;;;28.54;59.55;100903.73;1725634;82;21430;-71
2021/07/01 11:03:30;;;;;;;9.95;6.78;;;;;;;28.50;59.17;100890.57;1726569;82;21356;-69
2021/07/01 11:06:05;;;;;;;11.73;6.05;;;;;;;28.46;58.95;100889.66;1730574;82;22021;-74
2021/07/01 11:08:38;;;;;;;11.65;5.20;;;;;;;28.44;58.48;100890.02;1719431;82;21401;-70
2021/07/01 11:11:22;;;;;;;9.98;6.33;;;;;;;28.44;58.47;100885.73;1720139;82;21329;-67
2021/07/01 11:14:00;;;;;;;10.98;6.08;;;;;;;28.42;58.91;100882.44;1745252;82;21344;-67
2021/07/01 11:16:46;;;;;;;9.75;5.42;;;;;;;28.40;59.21;100898.30;1729479;82;21206;-73
2021/07/01 11:19:21;;;;;;;14.15;6.85;;;;;;;28.34;58.28;100891.20;1662950;85;21354;-68
2021/07/01 11:21:54;;;;;;;9.63;6.08;;;;;;;28.25;59.15;100877.13;1709698;84;21270;-73
2021/07/01 11:24:27;;;;;;;22.42;6.58;;;;;;;28.18;59.81;100884.73;1692840;84;21226;-66
2021/07/01 11:27:02;;;;;;;18.12;5.83;;;;;;;28.16;59.76;100879.97;1707111;84;21344;-73
2021/07/01 11:29:45;;;;;;;9.60;6.58;;;;;;;28.16;60.06;100872.23;1689201;85;21337;-66
2021/07/01 11:32:25;;;;;;;11.10;5.60;;;;;;;28.19;60.60;100875.76;1715741;82;21229;-67
2021/07/01 11:34:58;;;;;;;23.90;6.83;;;;;;;28.23;60.10;100886.68;1715624;82;21338;-68
2021/07/01 11:37:39;;;;;;;13.60;6.40;;;;;;;28.21;60.20;100885.39;1725901;82;21179;-66
2021/07/01 11:40:15;;;;;;;13.03;5.40;;;;;;;28.12;61.17;100879.89;1733001;82;21187;-66
2021/07/01 11:42:51;;;;;;;16.82;5.62;;;;;;;28.07;61.25;100887.31;1731291;82;21198;-69
2021/07/01 11:45:24;;;;;;;12.53;5.08;;;;;;;28.06;60.79;100884.86;1727133;82;21290;-67
2021/07/01 11:47:59;;;;;;;9.23;4.78;;;;;;;28.05;60.49;100880.31;1730444;82;21250;-72
2021/07/01 11:50:33;;;;;;;8.40;5.67;;;;;;;28.03;60.96;100886.43;1729770;82;22703;-67
2021/07/01 11:53:05;;;;;;;9.40;4.97;;;;;;;27.99;60.98;100883.23;1703011;84;21158;-73
2021/07/01 11:55:38;;;;;;;21.35;6.03;;;;;;;27.93;60.01;100890.44;1676583;85;21409;-68
2021/07/01 11:58:12;;;;;;;12.37;5.87;;;;;;;27.83;60.43;100901.84;1704200;83;21992;-69
2021/07/01 12:00:44;;;;;;;14.95;5.92;;;;;;;27.74;60.92;100890.35;1710614;83;21996;-74
2021/07/01 12:03:17;;;;;;;12.45;6.08;;;;;;;27.70;61.57;100892.31;1712263;83;21898;-74
2021/07/01 12:05:53;;;;;;;15.03;5.70;;;;;;;27.70;61.72;100914.53;1710832;83;21328;-66